sensor_id;sensor_type;location;lat;lon;timestamp;pressure;altitude;pressure_sealevel;temperature;humidity
78932;BME280;68331;53.362;55.932;2023-08-01T00:00:05;99213.31;;;18.98;61.91
78932;BME280;68331;53.362;55.932;2023-08-01T00:02:39;99213.44;;;19.08;61.80
78932;BME280;68331;53.362;55.932;2023-08-01T00:05:09;99210.31;;;19.14;61.56
78932;BME280;68331;53.362;55.932;2023-08-01T00:07:35;99205.09;;;19.12;61.77
78932;BME280;68331;53.362;55.932;2023-08-01T00:10:02;99192.94;;;19.08;61.31
78932;BME280;68331;53.362;55.932;2023-08-01T00:12:31;99200.72;;;19.22;61.14
78932;BME280;68331;53.362;55.932;2023-08-01T00:14:58;99207.44;;;19.28;60.87
78932;BME280;68331;53.362;55.932;2023-08-01T00:17:23;99207.53;;;19.26;61.18
78932;BME280;68331;53.362;55.932;2023-08-01T00:19:49;99215.44;;;19.28;61.24
78932;BME280;68331;53.362;55.932;2023-08-01T00:22:15;99203.63;;;19.19;61.36
78932;BME280;68331;53.362;55.932;2023-08-01T00:24:41;99217.38;;;19.26;61.22
78932;BME280;68331;53.362;55.932;2023-08-01T00:27:07;99217.75;;;19.21;61.65
78932;BME280;68331;53.362;55.932;2023-08-01T00:29:36;99212.50;;;19.20;61.80
78932;BME280;68331;53.362;55.932;2023-08-01T00:32:03;99211.06;;;19.27;61.66
78932;BME280;68331;53.362;55.932;2023-08-01T00:34:29;99214.47;;;19.29;61.51
78932;BME280;68331;53.362;55.932;2023-08-01T00:36:55;99214.69;;;19.26;61.53
78932;BME280;68331;53.362;55.932;2023-08-01T00:39:22;99212.78;;;19.28;61.51
78932;BME280;68331;53.362;55.932;2023-08-01T00:41:48;99213.63;;;19.28;61.66
78932;BME280;68331;53.362;55.932;2023-08-01T00:44:14;99209.72;;;19.33;61.57
78932;BME280;68331;53.362;55.932;2023-08-01T00:46:40;99203.53;;;19.32;61.50
78932;BME280;68331;53.362;55.932;2023-08-01T00:49:07;99210.22;;;19.38;61.64
78932;BME280;68331;53.362;55.932;2023-08-01T00:51:34;99201.97;;;19.41;61.38
78932;BME280;68331;53.362;55.932;2023-08-01T00:54:01;99205.59;;;19.40;61.18
78932;BME280;68331;53.362;55.932;2023-08-01T00:56:27;99212.53;;;19.42;61.48
78932;BME280;68331;53.362;55.932;2023-08-01T00:58:55;99206.34;;;19.42;61.06
78932;BME280;68331;53.362;55.932;2023-08-01T01:01:21;99214.50;;;19.40;61.32
78932;BME280;68331;53.362;55.932;2023-08-01T01:03:48;99206.34;;;19.42;61.69
78932;BME280;68331;53.362;55.932;2023-08-01T01:06:24;99206.34;;;19.42;61.38
78932;BME280;68331;53.362;55.932;2023-08-01T01:08:50;99209.63;;;19.34;61.41
78932;BME280;68331;53.362;55.932;2023-08-01T01:11:16;99210.44;;;19.23;61.84
78932;BME280;68331;53.362;55.932;2023-08-01T01:13:42;99212.38;;;19.10;61.92
78932;BME280;68331;53.362;55.932;2023-08-01T01:16:08;99208.84;;;19.10;62.16
78932;BME280;68331;53.362;55.932;2023-08-01T01:18:34;99210.53;;;19.11;62.14
78932;BME280;68331;53.362;55.932;2023-08-01T01:21:00;99210.06;;;19.17;61.98
78932;BME280;68331;53.362;55.932;2023-08-01T01:23:27;99211.19;;;19.25;61.65
78932;BME280;68331;53.362;55.932;2023-08-01T01:25:54;99209.25;;;19.27;61.58
78932;BME280;68331;53.362;55.932;2023-08-01T01:28:22;99217.88;;;19.31;61.58
78932;BME280;68331;53.362;55.932;2023-08-01T01:30:49;99213.84;;;19.37;61.50
78932;BME280;68331;53.362;55.932;2023-08-01T01:33:15;99217.53;;;19.47;61.42
78932;BME280;68331;53.362;55.932;2023-08-01T01:35:42;99215.47;;;19.50;61.27
78932;BME280;68331;53.362;55.932;2023-08-01T01:38:09;99219.34;;;19.58;60.98
78932;BME280;68331;53.362;55.932;2023-08-01T01:40:35;99191.88;;;19.44;60.94
78932;BME280;68331;53.362;55.932;2023-08-01T01:43:01;99209.16;;;19.63;60.93
78932;BME280;68331;53.362;55.932;2023-08-01T01:45:27;99215.97;;;19.67;60.66
78932;BME280;68331;53.362;55.932;2023-08-01T01:47:53;99217.09;;;19.76;60.59
78932;BME280;68331;53.362;55.932;2023-08-01T01:50:19;99214.63;;;19.84;60.27
78932;BME280;68331;53.362;55.932;2023-08-01T01:52:46;99216.72;;;19.91;60.22
78932;BME280;68331;53.362;55.932;2023-08-01T01:55:12;99218.16;;;19.95;59.74
78932;BME280;68331;53.362;55.932;2023-08-01T01:57:39;99215.34;;;19.97;59.59
78932;BME280;68331;53.362;55.932;2023-08-01T02:00:06;99214.88;;;19.92;59.79
78932;BME280;68331;53.362;55.932;2023-08-01T02:02:41;99217.19;;;19.85;59.73
78932;BME280;68331;53.362;55.932;2023-08-01T02:05:07;99205.88;;;19.70;60.34
78932;BME280;68331;53.362;55.932;2023-08-01T02:07:33;99212.91;;;19.60;60.59
78932;BME280;68331;53.362;55.932;2023-08-01T02:10:01;99206.34;;;19.53;60.92
78932;BME280;68331;53.362;55.932;2023-08-01T02:12:32;99191.88;;;19.44;60.67
78932;BME280;68331;53.362;55.932;2023-08-01T02:15:02;99221.94;;;19.59;60.49
78932;BME280;68331;53.362;55.932;2023-08-01T02:17:31;99212.31;;;19.68;60.01
78932;BME280;68331;53.362;55.932;2023-08-01T02:20:17;99217.78;;;19.78;60.11
78932;BME280;68331;53.362;55.932;2023-08-01T02:22:43;99209.75;;;19.78;60.08
78932;BME280;68331;53.362;55.932;2023-08-01T02:25:10;99209.53;;;19.81;59.91
78932;BME280;68331;53.362;55.932;2023-08-01T02:27:37;99209.41;;;19.82;60.11
78932;BME280;68331;53.362;55.932;2023-08-01T02:30:03;99208.06;;;19.77;60.28
78932;BME280;68331;53.362;55.932;2023-08-01T02:32:33;99208.31;;;19.73;60.44
78932;BME280;68331;53.362;55.932;2023-08-01T02:34:59;99197.13;;;19.80;60.23
78932;BME280;68331;53.362;55.932;2023-08-01T02:37:25;99198.06;;;19.90;59.94
78932;BME280;68331;53.362;55.932;2023-08-01T02:39:52;99195.88;;;19.95;59.75
78932;BME280;68331;53.362;55.932;2023-08-01T02:42:18;99201.47;;;20.03;59.53
78932;BME280;68331;53.362;55.932;2023-08-01T02:44:44;99187.72;;;20.08;59.60
78932;BME280;68331;53.362;55.932;2023-08-01T02:47:10;99196.34;;;20.11;59.39
78932;BME280;68331;53.362;55.932;2023-08-01T02:49:36;99200.72;;;20.12;59.63
78932;BME280;68331;53.362;55.932;2023-08-01T02:52:02;99203.38;;;20.12;59.56
78932;BME280;68331;53.362;55.932;2023-08-01T02:54:28;99207.50;;;20.16;59.65
78932;BME280;68331;53.362;55.932;2023-08-01T02:56:54;99203.88;;;20.17;59.93
78932;BME280;68331;53.362;55.932;2023-08-01T02:59:21;99206.41;;;20.19;59.99
78932;BME280;68331;53.362;55.932;2023-08-01T03:01:47;99208.00;;;20.21;59.76
78932;BME280;68331;53.362;55.932;2023-08-01T03:04:12;99210.16;;;20.28;60.13
78932;BME280;68331;53.362;55.932;2023-08-01T03:06:39;99205.91;;;20.36;59.71
78932;BME280;68331;53.362;55.932;2023-08-01T03:09:05;99208.25;;;20.51;59.63
78932;BME280;68331;53.362;55.932;2023-08-01T03:11:37;99203.59;;;20.64;59.36
78932;BME280;68331;53.362;55.932;2023-08-01T03:14:03;99204.09;;;20.69;59.40
78932;BME280;68331;53.362;55.932;2023-08-01T03:16:32;99200.31;;;20.72;60.01
78932;BME280;68331;53.362;55.932;2023-08-01T03:18:59;99207.44;;;20.82;59.79
78932;BME280;68331;53.362;55.932;2023-08-01T03:21:33;99212.53;;;20.85;59.92
78932;BME280;68331;53.362;55.932;2023-08-01T03:24:01;99215.69;;;20.90;59.89
78932;BME280;68331;53.362;55.932;2023-08-01T03:26:27;99216.44;;;21.02;59.70
78932;BME280;68331;53.362;55.932;2023-08-01T03:28:55;99221.25;;;21.20;59.09
78932;BME280;68331;53.362;55.932;2023-08-01T03:31:22;99217.72;;;21.40;58.43
78932;BME280;68331;53.362;55.932;2023-08-01T03:33:49;99211.13;;;21.44;58.29
78932;BME280;68331;53.362;55.932;2023-08-01T03:36:15;99227.25;;;21.54;58.32
78932;BME280;68331;53.362;55.932;2023-08-01T03:38:41;99221.97;;;21.43;58.39
78932;BME280;68331;53.362;55.932;2023-08-01T03:41:08;99228.50;;;21.29;58.46
78932;BME280;68331;53.362;55.932;2023-08-01T03:43:34;99226.59;;;21.20;58.41
78932;BME280;68331;53.362;55.932;2023-08-01T03:46:01;99229.34;;;21.08;58.85
78932;BME280;68331;53.362;55.932;2023-08-01T03:48:27;99217.19;;;21.04;58.99
78932;BME280;68331;53.362;55.932;2023-08-01T03:50:53;99219.59;;;21.07;59.27
78932;BME280;68331;53.362;55.932;2023-08-01T03:53:20;99227.91;;;21.04;59.20
78932;BME280;68331;53.362;55.932;2023-08-01T03:55:47;99227.06;;;21.04;58.90
78932;BME280;68331;53.362;55.932;2023-08-01T03:58:13;99230.47;;;21.06;59.16
78932;BME280;68331;53.362;55.932;2023-08-01T04:00:39;99222.13;;;21.09;58.93
78932;BME280;68331;53.362;55.932;2023-08-01T04:03:05;99224.56;;;21.12;58.49
78932;BME280;68331;53.362;55.932;2023-08-01T04:05:31;99231.13;;;21.19;58.56
78932;BME280;68331;53.362;55.932;2023-08-01T04:07:57;99227.31;;;21.22;58.15
78932;BME280;68331;53.362;55.932;2023-08-01T04:10:24;99223.50;;;21.24;58.04
78932;BME280;68331;53.362;55.932;2023-08-01T04:12:50;99230.94;;;21.32;57.71
78932;BME280;68331;53.362;55.932;2023-08-01T04:15:16;99229.44;;;21.39;57.82
78932;BME280;68331;53.362;55.932;2023-08-01T04:17:42;99228.63;;;21.48;57.54
78932;BME280;68331;53.362;55.932;2023-08-01T04:20:09;99225.38;;;21.45;57.49
78932;BME280;68331;53.362;55.932;2023-08-01T04:22:35;99232.84;;;21.41;57.80
78932;BME280;68331;53.362;55.932;2023-08-01T04:25:02;99234.56;;;21.31;58.12
78932;BME280;68331;53.362;55.932;2023-08-01T04:27:32;99239.75;;;21.23;58.17
78932;BME280;68331;53.362;55.932;2023-08-01T04:29:59;99229.28;;;21.20;58.09
78932;BME280;68331;53.362;55.932;2023-08-01T04:32:24;99230.91;;;21.11;58.51
78932;BME280;68331;53.362;55.932;2023-08-01T04:34:51;99231.59;;;21.03;58.61
78932;BME280;68331;53.362;55.932;2023-08-01T04:37:17;99230.13;;;20.99;58.62
78932;BME280;68331;53.362;55.932;2023-08-01T04:39:47;99229.88;;;21.02;58.53
78932;BME280;68331;53.362;55.932;2023-08-01T04:42:13;99224.66;;;21.01;58.82
78932;BME280;68331;53.362;55.932;2023-08-01T04:44:39;99232.88;;;21.09;58.73
78932;BME280;68331;53.362;55.932;2023-08-01T04:47:05;99227.59;;;21.19;58.47
78932;BME280;68331;53.362;55.932;2023-08-01T04:49:32;99237.34;;;21.20;58.20
78932;BME280;68331;53.362;55.932;2023-08-01T04:51:58;99236.09;;;21.24;58.40
78932;BME280;68331;53.362;55.932;2023-08-01T04:54:24;99238.97;;;21.32;58.07
78932;BME280;68331;53.362;55.932;2023-08-01T04:56:50;99231.38;;;21.37;57.75
78932;BME280;68331;53.362;55.932;2023-08-01T04:59:16;99231.97;;;21.41;57.85
78932;BME280;68331;53.362;55.932;2023-08-01T05:01:42;99227.91;;;21.46;57.57
78932;BME280;68331;53.362;55.932;2023-08-01T05:04:08;99221.22;;;21.62;57.34
78932;BME280;68331;53.362;55.932;2023-08-01T05:06:33;99229.00;;;21.65;56.70
78932;BME280;68331;53.362;55.932;2023-08-01T05:09:00;99230.56;;;21.67;56.98
78932;BME280;68331;53.362;55.932;2023-08-01T05:11:26;99222.56;;;21.77;56.60
78932;BME280;68331;53.362;55.932;2023-08-01T05:13:52;99227.72;;;21.99;56.04
78932;BME280;68331;53.362;55.932;2023-08-01T05:16:17;99218.09;;;22.47;54.62
78932;BME280;68331;53.362;55.932;2023-08-01T05:18:44;99216.16;;;22.97;53.59
78932;BME280;68331;53.362;55.932;2023-08-01T05:21:09;99214.44;;;23.53;52.14
78932;BME280;68331;53.362;55.932;2023-08-01T05:23:36;99214.59;;;23.89;51.22
78932;BME280;68331;53.362;55.932;2023-08-01T05:26:02;99210.53;;;24.12;50.52
78932;BME280;68331;53.362;55.932;2023-08-01T05:28:28;99213.16;;;24.22;50.51
78932;BME280;68331;53.362;55.932;2023-08-01T05:30:54;99211.19;;;23.97;50.99
78932;BME280;68331;53.362;55.932;2023-08-01T05:33:20;99215.97;;;23.65;51.49
78932;BME280;68331;53.362;55.932;2023-08-01T05:35:46;99212.03;;;23.50;52.23
78932;BME280;68331;53.362;55.932;2023-08-01T05:38:13;99208.88;;;23.64;52.21
78932;BME280;68331;53.362;55.932;2023-08-01T05:40:39;99212.72;;;23.62;52.20
78932;BME280;68331;53.362;55.932;2023-08-01T05:43:05;99213.59;;;23.53;52.33
78932;BME280;68331;53.362;55.932;2023-08-01T05:45:35;99211.78;;;23.43;52.50
78932;BME280;68331;53.362;55.932;2023-08-01T05:48:01;99209.53;;;23.29;53.08
78932;BME280;68331;53.362;55.932;2023-08-01T05:50:28;99213.56;;;23.06;53.57
78932;BME280;68331;53.362;55.932;2023-08-01T05:52:54;99206.50;;;22.85;54.19
78932;BME280;68331;53.362;55.932;2023-08-01T05:55:20;99212.72;;;22.86;53.92
78932;BME280;68331;53.362;55.932;2023-08-01T05:57:46;99204.78;;;22.94;53.72
78932;BME280;68331;53.362;55.932;2023-08-01T06:00:15;99203.34;;;23.19;53.01
78932;BME280;68331;53.362;55.932;2023-08-01T06:02:41;99194.84;;;23.61;51.69
78932;BME280;68331;53.362;55.932;2023-08-01T06:05:07;99197.53;;;23.98;51.02
78932;BME280;68331;53.362;55.932;2023-08-01T06:07:34;99190.34;;;24.17;50.16
78932;BME280;68331;53.362;55.932;2023-08-01T06:10:00;99195.75;;;24.34;50.13
78932;BME280;68331;53.362;55.932;2023-08-01T06:12:26;99202.88;;;24.53;49.50
78932;BME280;68331;53.362;55.932;2023-08-01T06:14:52;99187.09;;;24.31;50.15
78932;BME280;68331;53.362;55.932;2023-08-01T06:17:18;99200.75;;;24.29;50.31
78932;BME280;68331;53.362;55.932;2023-08-01T06:19:44;99201.38;;;24.23;50.61
78932;BME280;68331;53.362;55.932;2023-08-01T06:22:10;99197.72;;;23.97;51.08
78932;BME280;68331;53.362;55.932;2023-08-01T06:24:36;99205.84;;;23.87;51.60
78932;BME280;68331;53.362;55.932;2023-08-01T06:27:03;99209.69;;;23.84;51.53
78932;BME280;68331;53.362;55.932;2023-08-01T06:29:29;99202.28;;;23.86;51.40
78932;BME280;68331;53.362;55.932;2023-08-01T06:31:55;99209.38;;;23.87;51.46
78932;BME280;68331;53.362;55.932;2023-08-01T06:34:21;99205.69;;;23.88;50.99
78932;BME280;68331;53.362;55.932;2023-08-01T06:36:47;99205.25;;;23.93;50.76
78932;BME280;68331;53.362;55.932;2023-08-01T06:39:14;99200.22;;;23.98;50.52
78932;BME280;68331;53.362;55.932;2023-08-01T06:41:40;99202.28;;;23.86;50.66
78932;BME280;68331;53.362;55.932;2023-08-01T06:44:06;99197.25;;;23.64;51.08
78932;BME280;68331;53.362;55.932;2023-08-01T06:46:32;99202.06;;;23.60;51.73
78932;BME280;68331;53.362;55.932;2023-08-01T06:48:58;99202.34;;;23.67;51.64
78932;BME280;68331;53.362;55.932;2023-08-01T06:51:24;99208.50;;;23.50;52.35
78932;BME280;68331;53.362;55.932;2023-08-01T06:53:50;99213.81;;;23.22;53.09
78932;BME280;68331;53.362;55.932;2023-08-01T06:56:16;99220.53;;;22.98;54.03
78932;BME280;68331;53.362;55.932;2023-08-01T06:58:42;99207.34;;;22.66;56.63
78932;BME280;68331;53.362;55.932;2023-08-01T07:01:08;99215.94;;;22.31;59.68
78932;BME280;68331;53.362;55.932;2023-08-01T07:03:34;99233.25;;;22.08;61.50
78932;BME280;68331;53.362;55.932;2023-08-01T07:06:00;99238.47;;;21.99;61.83
78932;BME280;68331;53.362;55.932;2023-08-01T07:08:26;99235.22;;;22.05;62.87
78932;BME280;68331;53.362;55.932;2023-08-01T07:10:52;99226.97;;;22.28;63.40
78932;BME280;68331;53.362;55.932;2023-08-01T07:13:18;99234.22;;;22.47;63.93
78932;BME280;68331;53.362;55.932;2023-08-01T07:15:45;99228.84;;;22.57;63.39
78932;BME280;68331;53.362;55.932;2023-08-01T07:18:12;99233.94;;;22.69;63.28
78932;BME280;68331;53.362;55.932;2023-08-01T07:20:38;99225.44;;;22.84;63.57
78932;BME280;68331;53.362;55.932;2023-08-01T07:23:03;99221.25;;;23.01;61.82
78932;BME280;68331;53.362;55.932;2023-08-01T07:25:29;99226.44;;;23.12;61.73
78932;BME280;68331;53.362;55.932;2023-08-01T07:27:55;99224.34;;;23.06;61.86
78932;BME280;68331;53.362;55.932;2023-08-01T07:30:22;99220.34;;;23.10;61.75
78932;BME280;68331;53.362;55.932;2023-08-01T07:32:48;99216.22;;;23.25;62.43
78932;BME280;68331;53.362;55.932;2023-08-01T07:35:14;99215.19;;;23.46;61.43
78932;BME280;68331;53.362;55.932;2023-08-01T07:37:40;99216.00;;;23.56;61.29
78932;BME280;68331;53.362;55.932;2023-08-01T07:40:07;99218.81;;;23.54;60.97
78932;BME280;68331;53.362;55.932;2023-08-01T07:42:33;99222.53;;;23.53;60.84
78932;BME280;68331;53.362;55.932;2023-08-01T07:44:59;99209.47;;;23.58;61.08
78932;BME280;68331;53.362;55.932;2023-08-01T07:47:25;99209.94;;;23.91;61.03
78932;BME280;68331;53.362;55.932;2023-08-01T07:49:51;99205.69;;;24.34;59.89
78932;BME280;68331;53.362;55.932;2023-08-01T07:52:17;99209.56;;;24.85;59.00
78932;BME280;68331;53.362;55.932;2023-08-01T07:54:44;99205.00;;;25.21;56.23
78932;BME280;68331;53.362;55.932;2023-08-01T07:57:12;99208.41;;;25.58;54.54
78932;BME280;68331;53.362;55.932;2023-08-01T07:59:38;99201.75;;;26.04;52.31
78932;BME280;68331;53.362;55.932;2023-08-01T08:02:04;99197.88;;;26.15;51.64
78932;BME280;68331;53.362;55.932;2023-08-01T08:04:30;99195.66;;;26.02;51.48
78932;BME280;68331;53.362;55.932;2023-08-01T08:06:56;99191.81;;;25.79;52.48
78932;BME280;68331;53.362;55.932;2023-08-01T08:09:26;99207.00;;;25.45;53.06
78932;BME280;68331;53.362;55.932;2023-08-01T08:11:53;99211.25;;;25.04;53.93
78932;BME280;68331;53.362;55.932;2023-08-01T08:14:19;99207.44;;;24.71;54.92
78932;BME280;68331;53.362;55.932;2023-08-01T08:16:47;99190.41;;;24.52;55.02
78932;BME280;68331;53.362;55.932;2023-08-01T08:19:14;99196.66;;;24.71;54.90
78932;BME280;68331;53.362;55.932;2023-08-01T08:21:40;99192.94;;;24.90;55.00
78932;BME280;68331;53.362;55.932;2023-08-01T08:24:07;99193.81;;;25.16;53.94
78932;BME280;68331;53.362;55.932;2023-08-01T08:26:33;99194.63;;;25.35;53.17
78932;BME280;68331;53.362;55.932;2023-08-01T08:29:04;99201.56;;;25.71;52.43
78932;BME280;68331;53.362;55.932;2023-08-01T08:31:33;99199.19;;;26.03;50.77
78932;BME280;68331;53.362;55.932;2023-08-01T08:33:59;99200.16;;;25.93;50.23
78932;BME280;68331;53.362;55.932;2023-08-01T08:36:25;99197.22;;;26.21;48.95
78932;BME280;68331;53.362;55.932;2023-08-01T08:38:52;99185.28;;;26.48;47.87
78932;BME280;68331;53.362;55.932;2023-08-01T08:41:21;99181.09;;;26.54;47.09
78932;BME280;68331;53.362;55.932;2023-08-01T08:43:48;99176.88;;;26.67;47.48
78932;BME280;68331;53.362;55.932;2023-08-01T08:46:18;99179.06;;;26.72;46.35
78932;BME280;68331;53.362;55.932;2023-08-01T08:48:47;99164.84;;;26.95;46.34
78932;BME280;68331;53.362;55.932;2023-08-01T08:51:13;99169.59;;;27.25;45.81
78932;BME280;68331;53.362;55.932;2023-08-01T08:53:40;99157.81;;;27.57;44.23
78932;BME280;68331;53.362;55.932;2023-08-01T08:56:08;99158.47;;;27.59;44.22
78932;BME280;68331;53.362;55.932;2023-08-01T08:58:35;99158.88;;;27.48;42.73
78932;BME280;68331;53.362;55.932;2023-08-01T09:01:05;99160.44;;;27.26;42.84
78932;BME280;68331;53.362;55.932;2023-08-01T09:03:31;99163.66;;;26.89;43.60
78932;BME280;68331;53.362;55.932;2023-08-01T09:06:04;99168.41;;;26.62;43.80
78932;BME280;68331;53.362;55.932;2023-08-01T09:08:35;99170.06;;;26.39;44.76
78932;BME280;68331;53.362;55.932;2023-08-01T09:11:03;99169.16;;;26.14;45.67
78932;BME280;68331;53.362;55.932;2023-08-01T09:13:30;99177.41;;;26.04;45.58
78932;BME280;68331;53.362;55.932;2023-08-01T09:15:57;99175.00;;;25.93;46.13
78932;BME280;68331;53.362;55.932;2023-08-01T09:18:25;99175.75;;;25.77;46.43
78932;BME280;68331;53.362;55.932;2023-08-01T09:20:54;99176.22;;;25.64;46.58
78932;BME280;68331;53.362;55.932;2023-08-01T09:23:19;99180.88;;;25.54;47.29
78932;BME280;68331;53.362;55.932;2023-08-01T09:25:46;99187.84;;;25.31;48.53
78932;BME280;68331;53.362;55.932;2023-08-01T09:28:20;99185.44;;;24.83;52.23
78932;BME280;68331;53.362;55.932;2023-08-01T09:30:54;99189.56;;;24.52;53.45
78932;BME280;68331;53.362;55.932;2023-08-01T09:33:23;99187.88;;;24.51;54.38
78932;BME280;68331;53.362;55.932;2023-08-01T09:35:51;99178.94;;;24.94;53.49
78932;BME280;68331;53.362;55.932;2023-08-01T09:38:18;99190.41;;;25.66;51.46
78932;BME280;68331;53.362;55.932;2023-08-01T09:40:47;99180.63;;;26.08;49.85
78932;BME280;68331;53.362;55.932;2023-08-01T09:43:13;99184.13;;;25.92;49.53
78932;BME280;68331;53.362;55.932;2023-08-01T09:45:54;99183.91;;;25.51;50.48
78932;BME280;68331;53.362;55.932;2023-08-01T09:48:27;99191.00;;;25.26;51.35
78932;BME280;68331;53.362;55.932;2023-08-01T09:51:08;99189.44;;;25.15;52.81
78932;BME280;68331;53.362;55.932;2023-08-01T09:53:36;99180.06;;;25.10;52.75
78932;BME280;68331;53.362;55.932;2023-08-01T09:56:14;99188.50;;;25.24;52.60
78932;BME280;68331;53.362;55.932;2023-08-01T09:58:42;99194.56;;;25.26;51.91
78932;BME280;68331;53.362;55.932;2023-08-01T10:01:08;99199.22;;;25.16;51.66
78932;BME280;68331;53.362;55.932;2023-08-01T10:03:35;99198.28;;;25.08;52.02
78932;BME280;68331;53.362;55.932;2023-08-01T10:06:00;99199.47;;;24.87;52.49
78932;BME280;68331;53.362;55.932;2023-08-01T10:08:29;99202.72;;;24.73;53.02
78932;BME280;68331;53.362;55.932;2023-08-01T10:10:54;99204.97;;;24.77;53.20
78932;BME280;68331;53.362;55.932;2023-08-01T10:13:27;99205.72;;;24.88;53.03
78932;BME280;68331;53.362;55.932;2023-08-01T10:15:53;99203.25;;;24.94;53.28
78932;BME280;68331;53.362;55.932;2023-08-01T10:18:20;99203.75;;;24.98;53.22
78932;BME280;68331;53.362;55.932;2023-08-01T10:20:47;99218.44;;;25.13;53.41
78932;BME280;68331;53.362;55.932;2023-08-01T10:23:14;99215.69;;;25.31;52.76
78932;BME280;68331;53.362;55.932;2023-08-01T10:25:41;99210.19;;;25.41;52.83
78932;BME280;68331;53.362;55.932;2023-08-01T10:28:09;99209.56;;;25.47;52.13
78932;BME280;68331;53.362;55.932;2023-08-01T10:30:35;99209.75;;;25.54;52.46
78932;BME280;68331;53.362;55.932;2023-08-01T10:33:01;99206.41;;;25.60;52.38
78932;BME280;68331;53.362;55.932;2023-08-01T10:35:35;99209.38;;;25.48;52.47
78932;BME280;68331;53.362;55.932;2023-08-01T10:38:07;99211.63;;;25.53;52.49
78932;BME280;68331;53.362;55.932;2023-08-01T10:40:35;99202.88;;;25.59;52.04
78932;BME280;68331;53.362;55.932;2023-08-01T10:43:02;99206.44;;;25.68;52.16
78932;BME280;68331;53.362;55.932;2023-08-01T10:45:28;99201.75;;;25.78;51.55
78932;BME280;68331;53.362;55.932;2023-08-01T10:48:09;99207.13;;;25.70;50.64
78932;BME280;68331;53.362;55.932;2023-08-01T10:50:37;99200.00;;;25.61;51.04
78932;BME280;68331;53.362;55.932;2023-08-01T10:53:08;99205.13;;;25.46;51.23
78932;BME280;68331;53.362;55.932;2023-08-01T10:55:42;99198.53;;;25.40;50.65
78932;BME280;68331;53.362;55.932;2023-08-01T10:58:09;99207.59;;;25.57;50.08
78932;BME280;68331;53.362;55.932;2023-08-01T11:00:35;99204.25;;;25.63;49.42
78932;BME280;68331;53.362;55.932;2023-08-01T11:03:01;99203.28;;;25.72;49.23
78932;BME280;68331;53.362;55.932;2023-08-01T11:05:27;99213.75;;;25.75;49.09
78932;BME280;68331;53.362;55.932;2023-08-01T11:07:59;99216.38;;;25.93;49.25
78932;BME280;68331;53.362;55.932;2023-08-01T11:10:27;99205.91;;;25.64;49.47
78932;BME280;68331;53.362;55.932;2023-08-01T11:12:54;99209.69;;;25.45;50.03
78932;BME280;68331;53.362;55.932;2023-08-01T11:15:20;99208.16;;;25.43;49.79
78932;BME280;68331;53.362;55.932;2023-08-01T11:17:48;99205.03;;;25.56;49.47
78932;BME280;68331;53.362;55.932;2023-08-01T11:20:16;99208.91;;;25.53;49.42
78932;BME280;68331;53.362;55.932;2023-08-01T11:22:55;99202.44;;;25.46;49.60
78932;BME280;68331;53.362;55.932;2023-08-01T11:25:37;99203.44;;;25.45;49.86
78932;BME280;68331;53.362;55.932;2023-08-01T11:28:07;99197.63;;;25.32;49.65
78932;BME280;68331;53.362;55.932;2023-08-01T11:30:34;99204.47;;;25.18;50.05
78932;BME280;68331;53.362;55.932;2023-08-01T11:33:02;99202.50;;;25.10;50.63
78932;BME280;68331;53.362;55.932;2023-08-01T11:35:39;99202.16;;;25.05;50.63
78932;BME280;68331;53.362;55.932;2023-08-01T11:38:06;99205.22;;;25.10;50.32
78932;BME280;68331;53.362;55.932;2023-08-01T11:40:32;99206.63;;;25.14;49.83
78932;BME280;68331;53.362;55.932;2023-08-01T11:43:00;99202.00;;;25.24;49.69
78932;BME280;68331;53.362;55.932;2023-08-01T11:45:26;99204.41;;;25.36;48.90
78932;BME280;68331;53.362;55.932;2023-08-01T11:47:52;99201.38;;;25.39;47.28
78932;BME280;68331;53.362;55.932;2023-08-01T11:50:21;99196.84;;;25.39;46.80
78932;BME280;68331;53.362;55.932;2023-08-01T11:52:51;99192.78;;;25.69;46.05
78932;BME280;68331;53.362;55.932;2023-08-01T11:55:26;99192.94;;;25.68;45.27
78932;BME280;68331;53.362;55.932;2023-08-01T11:57:54;99185.81;;;25.85;44.98
78932;BME280;68331;53.362;55.932;2023-08-01T12:00:27;99186.66;;;25.85;45.00
78932;BME280;68331;53.362;55.932;2023-08-01T12:03:07;99179.13;;;26.21;44.77
78932;BME280;68331;53.362;55.932;2023-08-01T12:05:38;99179.22;;;26.54;43.67
78932;BME280;68331;53.362;55.932;2023-08-01T12:08:14;99177.56;;;26.61;43.20
78932;BME280;68331;53.362;55.932;2023-08-01T12:10:45;99179.00;;;26.31;43.58
78932;BME280;68331;53.362;55.932;2023-08-01T12:13:24;99185.19;;;26.07;44.32
78932;BME280;68331;53.362;55.932;2023-08-01T12:15:55;99188.75;;;25.73;45.20
78932;BME280;68331;53.362;55.932;2023-08-01T12:18:28;99185.50;;;25.36;46.13
78932;BME280;68331;53.362;55.932;2023-08-01T12:20:55;99190.88;;;25.27;46.72
78932;BME280;68331;53.362;55.932;2023-08-01T12:23:21;99184.47;;;25.11;47.26
78932;BME280;68331;53.362;55.932;2023-08-01T12:25:47;99186.19;;;24.94;48.13
78932;BME280;68331;53.362;55.932;2023-08-01T12:28:14;99185.38;;;24.75;48.79
78932;BME280;68331;53.362;55.932;2023-08-01T12:30:41;99182.22;;;24.62;49.60
78932;BME280;68331;53.362;55.932;2023-08-01T12:33:07;99184.47;;;24.67;49.49
78932;BME280;68331;53.362;55.932;2023-08-01T12:35:34;99179.22;;;24.83;49.24
78932;BME280;68331;53.362;55.932;2023-08-01T12:38:00;99177.34;;;24.83;49.24
78932;BME280;68331;53.362;55.932;2023-08-01T12:40:26;99174.22;;;24.70;49.92
78932;BME280;68331;53.362;55.932;2023-08-01T12:42:52;99168.03;;;24.60;50.07
78932;BME280;68331;53.362;55.932;2023-08-01T12:45:19;99163.28;;;24.54;49.79
78932;BME280;68331;53.362;55.932;2023-08-01T12:47:44;99170.72;;;24.60;50.24
78932;BME280;68331;53.362;55.932;2023-08-01T12:50:11;99171.03;;;24.75;50.08